sensor_id;sensor_type;location;lat;lon;timestamp;P1;durP1;ratioP1;P2;durP2;ratioP2
62475;SDS011;50739;45.670;11.936;2024-02-15T00:04:09;33.63;;;19.37;;
62475;SDS011;50739;45.670;11.936;2024-02-15T00:09:13;35.10;;;20.10;;
62475;SDS011;50739;45.670;11.936;2024-02-15T00:14:16;34.25;;;19.08;;
62475;SDS011;50739;45.670;11.936;2024-02-15T00:19:19;32.28;;;18.42;;
62475;SDS011;50739;45.670;11.936;2024-02-15T00:24:23;30.83;;;18.10;;
62475;SDS011;50739;45.670;11.936;2024-02-15T00:29:26;31.25;;;18.50;;
62475;SDS011;50739;45.670;11.936;2024-02-15T00:34:29;33.15;;;18.15;;
62475;SDS011;50739;45.670;11.936;2024-02-15T00:39:33;29.52;;;17.98;;
62475;SDS011;50739;45.670;11.936;2024-02-15T00:44:35;27.50;;;17.10;;
62475;SDS011;50739;45.670;11.936;2024-02-15T00:49:38;28.13;;;16.95;;
62475;SDS011;50739;45.670;11.936;2024-02-15T00:54:42;27.77;;;16.33;;
62475;SDS011;50739;45.670;11.936;2024-02-15T00:59:44;26.13;;;16.98;;
62475;SDS011;50739;45.670;11.936;2024-02-15T01:04:47;27.77;;;16.87;;
62475;SDS011;50739;45.670;11.936;2024-02-15T01:09:51;27.60;;;16.57;;
62475;SDS011;50739;45.670;11.936;2024-02-15T01:14:53;28.63;;;17.70;;
62475;SDS011;50739;45.670;11.936;2024-02-15T01:19:56;32.47;;;17.63;;
62475;SDS011;50739;45.670;11.936;2024-02-15T01:25:00;34.35;;;18.90;;
62475;SDS011;50739;45.670;11.936;2024-02-15T01:30:02;33.37;;;18.90;;
62475;SDS011;50739;45.670;11.936;2024-02-15T01:35:06;33.45;;;19.63;;
62475;SDS011;50739;45.670;11.936;2024-02-15T01:40:12;39.17;;;21.87;;
62475;SDS011;50739;45.670;11.936;2024-02-15T01:45:14;61.40;;;29.97;;
62475;SDS011;50739;45.670;11.936;2024-02-15T01:50:17;60.78;;;29.88;;
62475;SDS011;50739;45.670;11.936;2024-02-15T01:55:23;57.72;;;30.20;;
62475;SDS011;50739;45.670;11.936;2024-02-15T02:00:26;62.40;;;29.27;;
62475;SDS011;50739;45.670;11.936;2024-02-15T02:05:29;56.00;;;28.17;;
62475;SDS011;50739;45.670;11.936;2024-02-15T02:10:33;65.13;;;28.87;;
62475;SDS011;50739;45.670;11.936;2024-02-15T02:15:35;61.10;;;28.65;;
62475;SDS011;50739;45.670;11.936;2024-02-15T02:20:38;62.77;;;29.27;;
62475;SDS011;50739;45.670;11.936;2024-02-15T02:25:41;55.92;;;29.88;;
62475;SDS011;50739;45.670;11.936;2024-02-15T02:30:46;51.28;;;27.10;;
62475;SDS011;50739;45.670;11.936;2024-02-15T02:35:49;48.90;;;26.83;;
62475;SDS011;50739;45.670;11.936;2024-02-15T02:40:53;48.55;;;25.92;;
62475;SDS011;50739;45.670;11.936;2024-02-15T02:45:55;46.78;;;24.90;;
62475;SDS011;50739;45.670;11.936;2024-02-15T02:50:57;48.83;;;26.00;;
62475;SDS011;50739;45.670;11.936;2024-02-15T02:56:01;42.00;;;24.55;;
62475;SDS011;50739;45.670;11.936;2024-02-15T03:01:04;40.15;;;23.77;;
62475;SDS011;50739;45.670;11.936;2024-02-15T03:06:06;43.03;;;22.80;;
62475;SDS011;50739;45.670;11.936;2024-02-15T03:11:10;42.97;;;23.40;;
62475;SDS011;50739;45.670;11.936;2024-02-15T03:16:14;41.35;;;22.48;;
62475;SDS011;50739;45.670;11.936;2024-02-15T03:21:18;40.92;;;22.33;;
62475;SDS011;50739;45.670;11.936;2024-02-15T03:26:26;39.88;;;22.30;;
62475;SDS011;50739;45.670;11.936;2024-02-15T03:31:32;38.90;;;22.50;;
62475;SDS011;50739;45.670;11.936;2024-02-15T03:36:37;41.40;;;22.52;;
62475;SDS011;50739;45.670;11.936;2024-02-15T03:41:40;41.17;;;22.33;;
62475;SDS011;50739;45.670;11.936;2024-02-15T03:46:43;41.70;;;22.13;;
62475;SDS011;50739;45.670;11.936;2024-02-15T03:51:51;37.35;;;21.02;;
62475;SDS011;50739;45.670;11.936;2024-02-15T03:56:57;37.13;;;22.08;;
62475;SDS011;50739;45.670;11.936;2024-02-15T04:01:59;39.45;;;21.83;;
62475;SDS011;50739;45.670;11.936;2024-02-15T04:07:03;39.30;;;22.73;;
62475;SDS011;50739;45.670;11.936;2024-02-15T04:12:08;42.50;;;23.60;;
62475;SDS011;50739;45.670;11.936;2024-02-15T04:17:11;36.77;;;22.00;;
62475;SDS011;50739;45.670;11.936;2024-02-15T04:22:14;36.97;;;21.63;;
62475;SDS011;50739;45.670;11.936;2024-02-15T04:27:18;39.60;;;21.98;;
62475;SDS011;50739;45.670;11.936;2024-02-15T04:32:21;37.50;;;22.15;;
62475;SDS011;50739;45.670;11.936;2024-02-15T04:37:23;41.35;;;23.77;;
62475;SDS011;50739;45.670;11.936;2024-02-15T04:42:30;39.30;;;21.47;;
62475;SDS011;50739;45.670;11.936;2024-02-15T04:47:34;37.47;;;21.63;;
62475;SDS011;50739;45.670;11.936;2024-02-15T04:52:37;37.38;;;20.80;;
62475;SDS011;50739;45.670;11.936;2024-02-15T04:57:40;35.65;;;20.52;;
62475;SDS011;50739;45.670;11.936;2024-02-15T05:02:43;40.83;;;20.90;;
62475;SDS011;50739;45.670;11.936;2024-02-15T05:07:45;37.63;;;21.08;;
62475;SDS011;50739;45.670;11.936;2024-02-15T05:12:51;36.97;;;21.38;;
62475;SDS011;50739;45.670;11.936;2024-02-15T05:17:54;37.35;;;21.67;;
62475;SDS011;50739;45.670;11.936;2024-02-15T05:22:56;36.67;;;21.48;;
62475;SDS011;50739;45.670;11.936;2024-02-15T05:28:00;38.95;;;22.33;;
62475;SDS011;50739;45.670;11.936;2024-02-15T05:33:04;33.83;;;20.87;;
62475;SDS011;50739;45.670;11.936;2024-02-15T05:38:10;33.58;;;20.90;;
62475;SDS011;50739;45.670;11.936;2024-02-15T05:43:17;36.72;;;20.63;;
62475;SDS011;50739;45.670;11.936;2024-02-15T05:48:19;34.13;;;21.08;;
62475;SDS011;50739;45.670;11.936;2024-02-15T05:53:22;39.97;;;23.08;;
62475;SDS011;50739;45.670;11.936;2024-02-15T05:58:26;44.95;;;22.70;;
62475;SDS011;50739;45.670;11.936;2024-02-15T06:03:29;42.83;;;24.13;;
62475;SDS011;50739;45.670;11.936;2024-02-15T06:08:33;36.70;;;22.67;;
62475;SDS011;50739;45.670;11.936;2024-02-15T06:13:36;52.55;;;27.40;;
62475;SDS011;50739;45.670;11.936;2024-02-15T06:18:39;45.10;;;24.52;;
62475;SDS011;50739;45.670;11.936;2024-02-15T06:23:41;47.20;;;24.10;;
62475;SDS011;50739;45.670;11.936;2024-02-15T06:28:45;39.60;;;22.57;;
62475;SDS011;50739;45.670;11.936;2024-02-15T06:34:05;39.20;;;22.45;;
62475;SDS011;50739;45.670;11.936;2024-02-15T06:39:25;41.58;;;22.98;;
62475;SDS011;50739;45.670;11.936;2024-02-15T06:44:43;40.90;;;22.77;;
62475;SDS011;50739;45.670;11.936;2024-02-15T06:49:45;38.17;;;21.10;;
62475;SDS011;50739;45.670;11.936;2024-02-15T06:54:50;40.83;;;22.73;;
62475;SDS011;50739;45.670;11.936;2024-02-15T06:59:55;39.75;;;24.23;;
62475;SDS011;50739;45.670;11.936;2024-02-15T07:04:57;40.97;;;24.08;;
62475;SDS011;50739;45.670;11.936;2024-02-15T07:10:00;45.13;;;23.23;;
62475;SDS011;50739;45.670;11.936;2024-02-15T07:15:05;41.83;;;22.08;;
62475;SDS011;50739;45.670;11.936;2024-02-15T07:20:10;36.65;;;21.75;;
62475;SDS011;50739;45.670;11.936;2024-02-15T07:25:17;40.13;;;21.85;;
62475;SDS011;50739;45.670;11.936;2024-02-15T07:30:21;36.20;;;21.73;;
62475;SDS011;50739;45.670;11.936;2024-02-15T07:35:24;37.40;;;21.27;;
62475;SDS011;50739;45.670;11.936;2024-02-15T07:40:26;38.70;;;21.45;;
62475;SDS011;50739;45.670;11.936;2024-02-15T07:45:30;37.50;;;20.80;;
62475;SDS011;50739;45.670;11.936;2024-02-15T07:50:35;38.08;;;21.48;;
62475;SDS011;50739;45.670;11.936;2024-02-15T07:55:38;39.10;;;21.40;;
62475;SDS011;50739;45.670;11.936;2024-02-15T08:00:43;33.67;;;21.02;;
62475;SDS011;50739;45.670;11.936;2024-02-15T08:05:45;39.93;;;21.63;;
62475;SDS011;50739;45.670;11.936;2024-02-15T08:10:48;32.05;;;18.38;;
62475;SDS011;50739;45.670;11.936;2024-02-15T08:15:53;31.13;;;17.80;;
62475;SDS011;50739;45.670;11.936;2024-02-15T08:20:56;32.13;;;17.80;;
62475;SDS011;50739;45.670;11.936;2024-02-15T08:25:59;33.67;;;17.73;;
62475;SDS011;50739;45.670;11.936;2024-02-15T08:31:03;31.80;;;18.20;;
62475;SDS011;50739;45.670;11.936;2024-02-15T08:36:08;30.27;;;17.08;;
62475;SDS011;50739;45.670;11.936;2024-02-15T08:41:12;33.25;;;17.33;;
62475;SDS011;50739;45.670;11.936;2024-02-15T08:46:16;31.52;;;17.10;;
62475;SDS011;50739;45.670;11.936;2024-02-15T08:51:19;34.50;;;17.42;;
62475;SDS011;50739;45.670;11.936;2024-02-15T08:56:23;30.87;;;16.90;;
62475;SDS011;50739;45.670;11.936;2024-02-15T09:01:27;36.20;;;18.73;;
62475;SDS011;50739;45.670;11.936;2024-02-15T09:06:30;44.65;;;20.20;;
62475;SDS011;50739;45.670;11.936;2024-02-15T09:11:33;35.60;;;19.52;;
62475;SDS011;50739;45.670;11.936;2024-02-15T09:16:37;39.97;;;18.73;;
62475;SDS011;50739;45.670;11.936;2024-02-15T09:21:41;37.13;;;18.10;;
62475;SDS011;50739;45.670;11.936;2024-02-15T09:26:43;36.55;;;17.63;;
62475;SDS011;50739;45.670;11.936;2024-02-15T09:31:47;29.80;;;15.98;;
62475;SDS011;50739;45.670;11.936;2024-02-15T09:36:50;29.77;;;15.85;;
62475;SDS011;50739;45.670;11.936;2024-02-15T09:41:52;30.38;;;16.67;;
62475;SDS011;50739;45.670;11.936;2024-02-15T09:47:02;32.10;;;16.95;;
62475;SDS011;50739;45.670;11.936;2024-02-15T09:52:06;29.40;;;16.35;;
62475;SDS011;50739;45.670;11.936;2024-02-15T09:57:12;30.83;;;17.80;;
62475;SDS011;50739;45.670;11.936;2024-02-15T10:02:16;32.42;;;17.90;;
62475;SDS011;50739;45.670;11.936;2024-02-15T10:07:19;30.67;;;17.02;;
62475;SDS011;50739;45.670;11.936;2024-02-15T10:12:22;34.92;;;16.45;;
62475;SDS011;50739;45.670;11.936;2024-02-15T10:17:29;28.50;;;16.67;;
62475;SDS011;50739;45.670;11.936;2024-02-15T10:22:35;27.13;;;15.77;;
62475;SDS011;50739;45.670;11.936;2024-02-15T10:27:40;27.73;;;17.00;;
62475;SDS011;50739;45.670;11.936;2024-02-15T10:32:44;32.28;;;17.50;;
62475;SDS011;50739;45.670;11.936;2024-02-15T10:37:49;35.13;;;19.60;;
62475;SDS011;50739;45.670;11.936;2024-02-15T10:42:51;29.02;;;16.10;;
62475;SDS011;50739;45.670;11.936;2024-02-15T10:47:58;30.52;;;15.93;;
62475;SDS011;50739;45.670;11.936;2024-02-15T10:53:01;29.92;;;16.42;;
62475;SDS011;50739;45.670;11.936;2024-02-15T10:58:16;26.77;;;14.00;;
62475;SDS011;50739;45.670;11.936;2024-02-15T11:03:25;30.58;;;16.92;;
62475;SDS011;50739;45.670;11.936;2024-02-15T11:08:33;30.45;;;17.65;;
62475;SDS011;50739;45.670;11.936;2024-02-15T11:13:37;31.55;;;18.27;;
62475;SDS011;50739;45.670;11.936;2024-02-15T11:18:42;31.77;;;18.43;;
62475;SDS011;50739;45.670;11.936;2024-02-15T11:23:48;30.00;;;19.17;;
62475;SDS011;50739;45.670;11.936;2024-02-15T11:28:51;29.53;;;18.03;;
62475;SDS011;50739;45.670;11.936;2024-02-15T11:33:56;30.90;;;19.15;;
62475;SDS011;50739;45.670;11.936;2024-02-15T11:38:59;28.75;;;18.02;;
62475;SDS011;50739;45.670;11.936;2024-02-15T11:44:05;32.05;;;18.65;;
62475;SDS011;50739;45.670;11.936;2024-02-15T11:49:14;39.65;;;23.58;;
62475;SDS011;50739;45.670;11.936;2024-02-15T11:54:19;40.58;;;23.88;;
62475;SDS011;50739;45.670;11.936;2024-02-15T11:59:22;44.75;;;25.60;;
62475;SDS011;50739;45.670;11.936;2024-02-15T12:04:34;94.03;;;51.85;;
62475;SDS011;50739;45.670;11.936;2024-02-15T12:09:58;35.72;;;20.23;;
62475;SDS011;50739;45.670;11.936;2024-02-15T12:15:17;36.85;;;22.20;;
62475;SDS011;50739;45.670;11.936;2024-02-15T12:20:39;29.10;;;17.63;;
62475;SDS011;50739;45.670;11.936;2024-02-15T12:25:41;44.78;;;28.70;;
62475;SDS011;50739;45.670;11.936;2024-02-15T12:30:44;32.88;;;18.08;;
62475;SDS011;50739;45.670;11.936;2024-02-15T12:35:49;40.50;;;24.03;;
62475;SDS011;50739;45.670;11.936;2024-02-15T12:40:51;37.15;;;23.67;;
62475;SDS011;50739;45.670;11.936;2024-02-15T12:45:54;37.40;;;22.88;;
62475;SDS011;50739;45.670;11.936;2024-02-15T12:50:58;42.13;;;24.98;;
62475;SDS011;50739;45.670;11.936;2024-02-15T12:56:01;42.58;;;22.45;;
62475;SDS011;50739;45.670;11.936;2024-02-15T13:01:04;47.97;;;24.85;;
62475;SDS011;50739;45.670;11.936;2024-02-15T13:06:08;41.10;;;24.30;;
62475;SDS011;50739;45.670;11.936;2024-02-15T13:11:11;47.63;;;26.10;;
62475;SDS011;50739;45.670;11.936;2024-02-15T13:16:16;48.90;;;31.52;;
62475;SDS011;50739;45.670;11.936;2024-02-15T13:21:20;47.83;;;26.43;;
62475;SDS011;50739;45.670;11.936;2024-02-15T13:26:24;44.83;;;26.38;;
62475;SDS011;50739;45.670;11.936;2024-02-15T13:31:27;44.80;;;26.67;;
62475;SDS011;50739;45.670;11.936;2024-02-15T13:36:32;49.28;;;27.35;;
62475;SDS011;50739;45.670;11.936;2024-02-15T13:41:35;47.80;;;27.35;;
62475;SDS011;50739;45.670;11.936;2024-02-15T13:46:37;49.33;;;27.80;;
62475;SDS011;50739;45.670;11.936;2024-02-15T13:51:41;48.93;;;28.47;;
62475;SDS011;50739;45.670;11.936;2024-02-15T13:56:44;48.35;;;28.35;;
62475;SDS011;50739;45.670;11.936;2024-02-15T14:01:47;48.10;;;28.33;;
62475;SDS011;50739;45.670;11.936;2024-02-15T14:06:51;55.17;;;30.23;;
62475;SDS011;50739;45.670;11.936;2024-02-15T14:11:56;51.50;;;28.67;;
62475;SDS011;50739;45.670;11.936;2024-02-15T14:16:59;46.70;;;29.48;;
62475;SDS011;50739;45.670;11.936;2024-02-15T14:22:03;52.10;;;28.30;;
62475;SDS011;50739;45.670;11.936;2024-02-15T14:27:09;49.35;;;27.83;;
62475;SDS011;50739;45.670;11.936;2024-02-15T14:32:11;49.53;;;29.07;;
62475;SDS011;50739;45.670;11.936;2024-02-15T14:37:33;47.85;;;28.02;;
62475;SDS011;50739;45.670;11.936;2024-02-15T14:42:35;47.08;;;27.58;;
62475;SDS011;50739;45.670;11.936;2024-02-15T14:47:39;48.88;;;28.38;;
62475;SDS011;50739;45.670;11.936;2024-02-15T14:52:44;52.35;;;28.02;;
62475;SDS011;50739;45.670;11.936;2024-02-15T14:57:46;45.60;;;27.97;;
62475;SDS011;50739;45.670;11.936;2024-02-15T15:02:49;46.38;;;28.45;;
62475;SDS011;50739;45.670;11.936;2024-02-15T15:07:52;45.78;;;28.75;;
62475;SDS011;50739;45.670;11.936;2024-02-15T15:13:12;47.95;;;28.33;;
62475;SDS011;50739;45.670;11.936;2024-02-15T15:18:15;49.87;;;27.77;;
62475;SDS011;50739;45.670;11.936;2024-02-15T15:23:19;47.67;;;27.38;;
62475;SDS011;50739;45.670;11.936;2024-02-15T15:28:22;48.15;;;30.08;;
62475;SDS011;50739;45.670;11.936;2024-02-15T15:33:25;53.50;;;31.05;;
62475;SDS011;50739;45.670;11.936;2024-02-15T15:38:29;49.70;;;30.95;;
62475;SDS011;50739;45.670;11.936;2024-02-15T15:43:31;49.80;;;30.43;;
62475;SDS011;50739;45.670;11.936;2024-02-15T15:48:34;51.60;;;31.50;;
62475;SDS011;50739;45.670;11.936;2024-02-15T15:53:38;51.10;;;29.35;;
62475;SDS011;50739;45.670;11.936;2024-02-15T15:58:41;55.77;;;32.00;;
62475;SDS011;50739;45.670;11.936;2024-02-15T16:03:47;58.22;;;32.63;;
62475;SDS011;50739;45.670;11.936;2024-02-15T16:08:52;52.87;;;29.93;;
62475;SDS011;50739;45.670;11.936;2024-02-15T16:13:55;52.30;;;30.75;;
62475;SDS011;50739;45.670;11.936;2024-02-15T16:18:57;54.15;;;30.92;;
62475;SDS011;50739;45.670;11.936;2024-02-15T16:24:02;52.17;;;30.90;;
62475;SDS011;50739;45.670;11.936;2024-02-15T16:29:04;49.72;;;29.85;;
62475;SDS011;50739;45.670;11.936;2024-02-15T16:34:07;53.10;;;32.17;;
62475;SDS011;50739;45.670;11.936;2024-02-15T16:39:11;52.88;;;31.92;;
62475;SDS011;50739;45.670;11.936;2024-02-15T16:44:13;56.45;;;31.65;;
62475;SDS011;50739;45.670;11.936;2024-02-15T16:49:16;60.27;;;32.93;;
62475;SDS011;50739;45.670;11.936;2024-02-15T16:54:19;55.83;;;32.33;;
62475;SDS011;50739;45.670;11.936;2024-02-15T16:59:22;58.08;;;33.03;;
62475;SDS011;50739;45.670;11.936;2024-02-15T17:04:24;55.15;;;31.55;;
62475;SDS011;50739;45.670;11.936;2024-02-15T17:09:28;56.78;;;34.03;;
62475;SDS011;50739;45.670;11.936;2024-02-15T17:14:31;60.47;;;34.50;;
62475;SDS011;50739;45.670;11.936;2024-02-15T17:19:33;62.47;;;36.53;;
62475;SDS011;50739;45.670;11.936;2024-02-15T17:24:39;67.32;;;37.22;;
62475;SDS011;50739;45.670;11.936;2024-02-15T17:29:44;69.73;;;37.57;;
62475;SDS011;50739;45.670;11.936;2024-02-15T17:34:46;68.07;;;38.67;;
62475;SDS011;50739;45.670;11.936;2024-02-15T17:39:50;63.20;;;35.43;;
62475;SDS011;50739;45.670;11.936;2024-02-15T17:44:52;67.53;;;37.88;;
62475;SDS011;50739;45.670;11.936;2024-02-15T17:49:54;68.85;;;38.03;;
62475;SDS011;50739;45.670;11.936;2024-02-15T17:54:59;71.23;;;39.10;;
62475;SDS011;50739;45.670;11.936;2024-02-15T18:00:02;70.55;;;40.35;;
62475;SDS011;50739;45.670;11.936;2024-02-15T18:05:05;85.78;;;39.38;;
62475;SDS011;50739;45.670;11.936;2024-02-15T18:10:09;84.65;;;39.17;;
62475;SDS011;50739;45.670;11.936;2024-02-15T18:15:12;76.65;;;39.80;;
62475;SDS011;50739;45.670;11.936;2024-02-15T18:20:23;70.23;;;37.60;;
62475;SDS011;50739;45.670;11.936;2024-02-15T18:25:27;74.82;;;39.15;;
62475;SDS011;50739;45.670;11.936;2024-02-15T18:30:29;72.35;;;37.80;;
62475;SDS011;50739;45.670;11.936;2024-02-15T18:35:34;70.67;;;36.10;;
62475;SDS011;50739;45.670;11.936;2024-02-15T18:40:37;72.03;;;39.93;;
62475;SDS011;50739;45.670;11.936;2024-02-15T18:45:40;76.93;;;39.97;;
62475;SDS011;50739;45.670;11.936;2024-02-15T18:50:43;79.25;;;42.45;;
62475;SDS011;50739;45.670;11.936;2024-02-15T18:55:47;73.70;;;41.92;;
62475;SDS011;50739;45.670;11.936;2024-02-15T19:00:49;77.50;;;41.88;;
62475;SDS011;50739;45.670;11.936;2024-02-15T19:05:52;79.00;;;43.53;;
62475;SDS011;50739;45.670;11.936;2024-02-15T19:10:56;75.65;;;43.35;;
62475;SDS011;50739;45.670;11.936;2024-02-15T19:16:01;81.90;;;43.63;;
62475;SDS011;50739;45.670;11.936;2024-02-15T19:21:07;81.90;;;44.03;;
62475;SDS011;50739;45.670;11.936;2024-02-15T19:26:11;77.20;;;40.97;;
62475;SDS011;50739;45.670;11.936;2024-02-15T19:31:14;79.53;;;42.30;;
62475;SDS011;50739;45.670;11.936;2024-02-15T19:36:16;79.47;;;42.42;;
62475;SDS011;50739;45.670;11.936;2024-02-15T19:41:26;78.70;;;42.42;;
62475;SDS011;50739;45.670;11.936;2024-02-15T19:46:29;77.35;;;42.42;;
62475;SDS011;50739;45.670;11.936;2024-02-15T19:51:32;79.57;;;41.55;;
62475;SDS011;50739;45.670;11.936;2024-02-15T19:56:37;80.47;;;42.88;;
62475;SDS011;50739;45.670;11.936;2024-02-15T20:01:39;78.22;;;42.22;;
62475;SDS011;50739;45.670;11.936;2024-02-15T20:06:44;77.17;;;41.13;;
62475;SDS011;50739;45.670;11.936;2024-02-15T20:11:49;77.60;;;41.00;;
62475;SDS011;50739;45.670;11.936;2024-02-15T20:16:51;77.40;;;42.43;;
62475;SDS011;50739;45.670;11.936;2024-02-15T20:21:55;88.03;;;44.55;;
62475;SDS011;50739;45.670;11.936;2024-02-15T20:26:59;79.68;;;41.15;;
62475;SDS011;50739;45.670;11.936;2024-02-15T20:32:01;78.28;;;41.72;;
62475;SDS011;50739;45.670;11.936;2024-02-15T20:37:05;83.88;;;42.90;;
62475;SDS011;50739;45.670;11.936;2024-02-15T20:42:08;86.72;;;43.28;;
62475;SDS011;50739;45.670;11.936;2024-02-15T20:47:11;76.70;;;41.20;;
62475;SDS011;50739;45.670;11.936;2024-02-15T20:52:13;76.57;;;40.40;;
62475;SDS011;50739;45.670;11.936;2024-02-15T20:57:17;76.38;;;40.20;;
62475;SDS011;50739;45.670;11.936;2024-02-15T21:02:20;79.32;;;41.00;;
62475;SDS011;50739;45.670;11.936;2024-02-15T21:07:24;76.80;;;40.13;;
62475;SDS011;50739;45.670;11.936;2024-02-15T21:12:27;80.13;;;42.53;;
62475;SDS011;50739;45.670;11.936;2024-02-15T21:17:30;75.22;;;40.42;;
62475;SDS011;50739;45.670;11.936;2024-02-15T21:22:32;86.03;;;42.83;;
62475;SDS011;50739;45.670;11.936;2024-02-15T21:27:36;79.65;;;41.75;;
62475;SDS011;50739;45.670;11.936;2024-02-15T21:32:39;74.20;;;40.87;;
62475;SDS011;50739;45.670;11.936;2024-02-15T21:37:44;84.05;;;43.17;;
62475;SDS011;50739;45.670;11.936;2024-02-15T21:42:49;78.60;;;43.03;;
62475;SDS011;50739;45.670;11.936;2024-02-15T21:47:52;77.60;;;44.40;;
62475;SDS011;50739;45.670;11.936;2024-02-15T21:52:55;83.00;;;43.92;;
62475;SDS011;50739;45.670;11.936;2024-02-15T21:57:59;83.97;;;45.60;;
62475;SDS011;50739;45.670;11.936;2024-02-15T22:03:02;92.85;;;49.75;;
62475;SDS011;50739;45.670;11.936;2024-02-15T22:08:05;93.43;;;49.75;;
62475;SDS011;50739;45.670;11.936;2024-02-15T22:13:09;97.60;;;51.83;;
62475;SDS011;50739;45.670;11.936;2024-02-15T22:18:14;90.05;;;48.75;;
62475;SDS011;50739;45.670;11.936;2024-02-15T22:23:17;85.15;;;46.75;;
62475;SDS011;50739;45.670;11.936;2024-02-15T22:28:21;89.10;;;48.63;;
62475;SDS011;50739;45.670;11.936;2024-02-15T22:33:24;93.97;;;50.63;;
62475;SDS011;50739;45.670;11.936;2024-02-15T22:38:27;87.97;;;50.40;;
62475;SDS011;50739;45.670;11.936;2024-02-15T22:43:31;96.10;;;52.03;;
62475;SDS011;50739;45.670;11.936;2024-02-15T22:48:34;93.55;;;51.58;;
62475;SDS011;50739;45.670;11.936;2024-02-15T22:53:38;95.53;;;51.70;;
62475;SDS011;50739;45.670;11.936;2024-02-15T22:58:43;92.63;;;51.25;;
62475;SDS011;50739;45.670;11.936;2024-02-15T23:03:46;89.85;;;49.42;;
62475;SDS011;50739;45.670;11.936;2024-02-15T23:08:48;91.88;;;49.85;;
62475;SDS011;50739;45.670;11.936;2024-02-15T23:13:52;90.47;;;51.33;;
62475;SDS011;50739;45.670;11.936;2024-02-15T23:18:55;90.80;;;50.15;;
62475;SDS011;50739;45.670;11.936;2024-02-15T23:23:57;93.70;;;50.57;;
62475;SDS011;50739;45.670;11.936;2024-02-15T23:29:01;93.47;;;51.83;;
62475;SDS011;50739;45.670;11.936;2024-02-15T23:34:03;87.88;;;49.70;;
62475;SDS011;50739;45.670;11.936;2024-02-15T23:39:05;93.97;;;50.53;;
62475;SDS011;50739;45.670;11.936;2024-02-15T23:44:32;91.07;;;48.70;;
62475;SDS011;50739;45.670;11.936;2024-02-15T23:49:34;88.40;;;48.85;;
62475;SDS011;50739;45.670;11.936;2024-02-15T23:54:37;88.43;;;49.13;;
62475;SDS011;50739;45.670;11.936;2024-02-15T23:59:41;89.07;;;46.77;;
